sensor_id;sensor_type;location;lat;lon;timestamp;temperature;humidity
9971;DHT22;5026;51.494;11.974;2022-07-22T00:02:22;22.30;87.20
9971;DHT22;5026;51.494;11.974;2022-07-22T00:04:49;22.30;87.40
9971;DHT22;5026;51.494;11.974;2022-07-22T00:07:16;22.30;87.60
9971;DHT22;5026;51.494;11.974;2022-07-22T00:09:43;22.30;87.80
9971;DHT22;5026;51.494;11.974;2022-07-22T00:12:12;22.30;88.00
9971;DHT22;5026;51.494;11.974;2022-07-22T00:14:39;22.20;88.10
9971;DHT22;5026;51.494;11.974;2022-07-22T00:17:06;22.10;88.30
9971;DHT22;5026;51.494;11.974;2022-07-22T00:19:33;22.10;88.50
9971;DHT22;5026;51.494;11.974;2022-07-22T00:22:00;22.10;88.90
9971;DHT22;5026;51.494;11.974;2022-07-22T00:24:27;22.00;89.20
9971;DHT22;5026;51.494;11.974;2022-07-22T00:26:54;21.90;89.40
9971;DHT22;5026;51.494;11.974;2022-07-22T00:29:23;21.90;89.70
9971;DHT22;5026;51.494;11.974;2022-07-22T00:31:50;21.90;89.90
9971;DHT22;5026;51.494;11.974;2022-07-22T00:34:17;21.90;90.10
9971;DHT22;5026;51.494;11.974;2022-07-22T00:36:44;21.80;90.10
9971;DHT22;5026;51.494;11.974;2022-07-22T00:39:11;21.80;90.10
9971;DHT22;5026;51.494;11.974;2022-07-22T00:41:37;21.70;90.20
9971;DHT22;5026;51.494;11.974;2022-07-22T00:44:06;21.70;90.30
9971;DHT22;5026;51.494;11.974;2022-07-22T00:46:36;21.60;90.50
9971;DHT22;5026;51.494;11.974;2022-07-22T00:49:04;21.60;90.60
9971;DHT22;5026;51.494;11.974;2022-07-22T00:51:31;21.60;90.70
9971;DHT22;5026;51.494;11.974;2022-07-22T00:54:00;21.60;90.70
9971;DHT22;5026;51.494;11.974;2022-07-22T00:56:28;21.60;90.80
9971;DHT22;5026;51.494;11.974;2022-07-22T00:58:58;21.60;90.80
9971;DHT22;5026;51.494;11.974;2022-07-22T01:01:25;21.60;90.80
9971;DHT22;5026;51.494;11.974;2022-07-22T01:03:54;21.50;90.90
9971;DHT22;5026;51.494;11.974;2022-07-22T01:06:21;21.50;90.90
9971;DHT22;5026;51.494;11.974;2022-07-22T01:08:48;21.50;90.90
9971;DHT22;5026;51.494;11.974;2022-07-22T01:11:18;21.40;91.00
9971;DHT22;5026;51.494;11.974;2022-07-22T01:13:46;21.30;91.00
9971;DHT22;5026;51.494;11.974;2022-07-22T01:16:15;21.30;91.10
9971;DHT22;5026;51.494;11.974;2022-07-22T01:18:43;21.20;91.20
9971;DHT22;5026;51.494;11.974;2022-07-22T01:21:14;21.20;91.30
9971;DHT22;5026;51.494;11.974;2022-07-22T01:23:41;21.10;91.60
9971;DHT22;5026;51.494;11.974;2022-07-22T01:26:11;21.10;91.50
9971;DHT22;5026;51.494;11.974;2022-07-22T01:28:39;21.00;91.60
9971;DHT22;5026;51.494;11.974;2022-07-22T01:31:06;21.00;91.60
9971;DHT22;5026;51.494;11.974;2022-07-22T01:33:34;21.00;91.80
9971;DHT22;5026;51.494;11.974;2022-07-22T01:36:02;20.90;91.90
9971;DHT22;5026;51.494;11.974;2022-07-22T01:38:31;20.90;92.00
9971;DHT22;5026;51.494;11.974;2022-07-22T01:40:58;20.80;92.20
9971;DHT22;5026;51.494;11.974;2022-07-22T01:43:25;20.80;92.30
9971;DHT22;5026;51.494;11.974;2022-07-22T01:45:53;20.80;92.40
9971;DHT22;5026;51.494;11.974;2022-07-22T01:48:21;20.80;92.50
9971;DHT22;5026;51.494;11.974;2022-07-22T01:50:48;20.80;92.60
9971;DHT22;5026;51.494;11.974;2022-07-22T01:53:15;20.80;92.60
9971;DHT22;5026;51.494;11.974;2022-07-22T01:55:44;20.90;92.60
9971;DHT22;5026;51.494;11.974;2022-07-22T01:58:11;21.00;92.60
9971;DHT22;5026;51.494;11.974;2022-07-22T02:00:38;21.00;92.40
9971;DHT22;5026;51.494;11.974;2022-07-22T02:03:06;21.10;92.40
9971;DHT22;5026;51.494;11.974;2022-07-22T02:05:33;21.20;92.40
9971;DHT22;5026;51.494;11.974;2022-07-22T02:08:01;21.10;92.40
9971;DHT22;5026;51.494;11.974;2022-07-22T02:10:28;21.10;92.50
9971;DHT22;5026;51.494;11.974;2022-07-22T02:12:57;21.00;92.70
9971;DHT22;5026;51.494;11.974;2022-07-22T02:15:25;20.90;92.70
9971;DHT22;5026;51.494;11.974;2022-07-22T02:17:52;20.90;92.80
9971;DHT22;5026;51.494;11.974;2022-07-22T02:20:19;20.90;92.80
9971;DHT22;5026;51.494;11.974;2022-07-22T02:22:46;20.80;92.80
9971;DHT22;5026;51.494;11.974;2022-07-22T02:25:13;20.90;92.80
9971;DHT22;5026;51.494;11.974;2022-07-22T02:27:41;20.80;92.90
9971;DHT22;5026;51.494;11.974;2022-07-22T02:30:11;20.70;92.90
9971;DHT22;5026;51.494;11.974;2022-07-22T02:32:38;20.60;93.10
9971;DHT22;5026;51.494;11.974;2022-07-22T02:35:06;20.60;93.20
9971;DHT22;5026;51.494;11.974;2022-07-22T02:37:33;20.60;93.30
9971;DHT22;5026;51.494;11.974;2022-07-22T02:40:00;20.60;93.40
9971;DHT22;5026;51.494;11.974;2022-07-22T02:42:27;20.50;93.50
9971;DHT22;5026;51.494;11.974;2022-07-22T02:44:54;20.50;93.50
9971;DHT22;5026;51.494;11.974;2022-07-22T02:47:22;20.60;93.60
9971;DHT22;5026;51.494;11.974;2022-07-22T02:49:49;20.60;93.60
9971;DHT22;5026;51.494;11.974;2022-07-22T02:52:17;20.70;93.60
9971;DHT22;5026;51.494;11.974;2022-07-22T02:54:44;20.70;93.40
9971;DHT22;5026;51.494;11.974;2022-07-22T02:57:11;20.80;93.40
9971;DHT22;5026;51.494;11.974;2022-07-22T02:59:38;20.80;93.30
9971;DHT22;5026;51.494;11.974;2022-07-22T03:02:05;20.90;93.20
9971;DHT22;5026;51.494;11.974;2022-07-22T03:04:33;20.90;93.20
9971;DHT22;5026;51.494;11.974;2022-07-22T03:07:00;21.00;93.20
9971;DHT22;5026;51.494;11.974;2022-07-22T03:09:27;20.90;93.10
9971;DHT22;5026;51.494;11.974;2022-07-22T03:11:54;20.90;93.10
9971;DHT22;5026;51.494;11.974;2022-07-22T03:14:20;21.00;93.20
9971;DHT22;5026;51.494;11.974;2022-07-22T03:16:47;21.00;93.10
9971;DHT22;5026;51.494;11.974;2022-07-22T03:19:14;21.00;93.10
9971;DHT22;5026;51.494;11.974;2022-07-22T03:21:43;21.00;93.00
9971;DHT22;5026;51.494;11.974;2022-07-22T03:24:10;21.10;93.10
9971;DHT22;5026;51.494;11.974;2022-07-22T03:26:37;21.10;93.00
9971;DHT22;5026;51.494;11.974;2022-07-22T03:29:04;21.00;93.00
9971;DHT22;5026;51.494;11.974;2022-07-22T03:31:31;21.10;93.00
9971;DHT22;5026;51.494;11.974;2022-07-22T03:33:58;21.10;93.00
9971;DHT22;5026;51.494;11.974;2022-07-22T03:36:26;21.20;92.90
9971;DHT22;5026;51.494;11.974;2022-07-22T03:38:55;21.20;92.90
9971;DHT22;5026;51.494;11.974;2022-07-22T03:41:22;21.20;92.90
9971;DHT22;5026;51.494;11.974;2022-07-22T03:43:49;21.30;92.90
9971;DHT22;5026;51.494;11.974;2022-07-22T03:46:16;21.30;92.90
9971;DHT22;5026;51.494;11.974;2022-07-22T03:48:43;21.30;92.90
9971;DHT22;5026;51.494;11.974;2022-07-22T03:51:10;21.30;92.90
9971;DHT22;5026;51.494;11.974;2022-07-22T03:53:37;21.30;92.90
9971;DHT22;5026;51.494;11.974;2022-07-22T03:56:06;21.20;92.90
9971;DHT22;5026;51.494;11.974;2022-07-22T03:58:33;21.20;92.90
9971;DHT22;5026;51.494;11.974;2022-07-22T04:01:00;21.20;92.90
9971;DHT22;5026;51.494;11.974;2022-07-22T04:03:27;21.20;92.90
9971;DHT22;5026;51.494;11.974;2022-07-22T04:05:54;21.20;92.90
9971;DHT22;5026;51.494;11.974;2022-07-22T04:08:21;21.30;93.00
9971;DHT22;5026;51.494;11.974;2022-07-22T04:10:48;21.20;92.90
9971;DHT22;5026;51.494;11.974;2022-07-22T04:13:16;21.10;93.10
9971;DHT22;5026;51.494;11.974;2022-07-22T04:15:43;21.00;93.20
9971;DHT22;5026;51.494;11.974;2022-07-22T04:18:10;21.10;93.20
9971;DHT22;5026;51.494;11.974;2022-07-22T04:20:37;21.10;93.20
9971;DHT22;5026;51.494;11.974;2022-07-22T04:23:04;21.20;93.10
9971;DHT22;5026;51.494;11.974;2022-07-22T04:25:31;21.30;93.10
9971;DHT22;5026;51.494;11.974;2022-07-22T04:27:58;21.40;93.00
9971;DHT22;5026;51.494;11.974;2022-07-22T04:30:26;21.40;93.00
9971;DHT22;5026;51.494;11.974;2022-07-22T04:32:53;21.40;92.90
9971;DHT22;5026;51.494;11.974;2022-07-22T04:35:20;21.50;92.90
9971;DHT22;5026;51.494;11.974;2022-07-22T04:37:47;21.60;92.90
9971;DHT22;5026;51.494;11.974;2022-07-22T04:40:14;21.60;92.80
9971;DHT22;5026;51.494;11.974;2022-07-22T04:42:41;21.70;92.70
9971;DHT22;5026;51.494;11.974;2022-07-22T04:45:09;21.70;92.60
9971;DHT22;5026;51.494;11.974;2022-07-22T04:47:37;21.80;92.60
9971;DHT22;5026;51.494;11.974;2022-07-22T04:50:06;21.80;92.60
9971;DHT22;5026;51.494;11.974;2022-07-22T04:52:33;21.80;92.50
9971;DHT22;5026;51.494;11.974;2022-07-22T04:55:00;21.90;92.60
9971;DHT22;5026;51.494;11.974;2022-07-22T04:57:27;22.00;92.50
9971;DHT22;5026;51.494;11.974;2022-07-22T04:59:54;21.90;92.40
9971;DHT22;5026;51.494;11.974;2022-07-22T05:02:21;22.00;92.50
9971;DHT22;5026;51.494;11.974;2022-07-22T05:04:49;22.10;92.50
9971;DHT22;5026;51.494;11.974;2022-07-22T05:07:16;22.20;92.40
9971;DHT22;5026;51.494;11.974;2022-07-22T05:09:43;22.20;92.20
9971;DHT22;5026;51.494;11.974;2022-07-22T05:12:10;22.30;92.20
9971;DHT22;5026;51.494;11.974;2022-07-22T05:14:37;22.40;92.20
9971;DHT22;5026;51.494;11.974;2022-07-22T05:17:09;22.60;92.00
9971;DHT22;5026;51.494;11.974;2022-07-22T05:19:37;22.80;91.80
9971;DHT22;5026;51.494;11.974;2022-07-22T05:22:06;22.90;91.80
9971;DHT22;5026;51.494;11.974;2022-07-22T05:24:33;22.70;91.50
9971;DHT22;5026;51.494;11.974;2022-07-22T05:27:00;22.60;91.70
9971;DHT22;5026;51.494;11.974;2022-07-22T05:29:27;22.80;91.70
9971;DHT22;5026;51.494;11.974;2022-07-22T05:31:54;23.10;91.60
9971;DHT22;5026;51.494;11.974;2022-07-22T05:34:21;23.40;91.20
9971;DHT22;5026;51.494;11.974;2022-07-22T05:36:48;23.70;91.00
9971;DHT22;5026;51.494;11.974;2022-07-22T05:39:16;24.00;90.60
9971;DHT22;5026;51.494;11.974;2022-07-22T05:41:44;24.30;90.30
9971;DHT22;5026;51.494;11.974;2022-07-22T05:44:11;24.60;90.10
9971;DHT22;5026;51.494;11.974;2022-07-22T05:46:48;24.70;89.40
9971;DHT22;5026;51.494;11.974;2022-07-22T05:49:21;24.90;89.10
9971;DHT22;5026;51.494;11.974;2022-07-22T05:51:50;25.10;88.60
9971;DHT22;5026;51.494;11.974;2022-07-22T05:54:18;25.40;88.30
9971;DHT22;5026;51.494;11.974;2022-07-22T05:56:45;26.10;87.00
9971;DHT22;5026;51.494;11.974;2022-07-22T05:59:12;26.60;85.90
9971;DHT22;5026;51.494;11.974;2022-07-22T06:01:39;27.50;84.00
9971;DHT22;5026;51.494;11.974;2022-07-22T06:04:06;29.50;80.10
9971;DHT22;5026;51.494;11.974;2022-07-22T06:06:33;30.80;77.20
9971;DHT22;5026;51.494;11.974;2022-07-22T06:09:00;33.00;73.10
9971;DHT22;5026;51.494;11.974;2022-07-22T06:11:28;35.30;68.00
9971;DHT22;5026;51.494;11.974;2022-07-22T06:13:55;36.20;63.50
9971;DHT22;5026;51.494;11.974;2022-07-22T06:16:22;37.80;61.00
9971;DHT22;5026;51.494;11.974;2022-07-22T06:18:49;39.10;57.60
9971;DHT22;5026;51.494;11.974;2022-07-22T06:21:16;40.20;54.90
9971;DHT22;5026;51.494;11.974;2022-07-22T06:23:43;41.00;52.70
9971;DHT22;5026;51.494;11.974;2022-07-22T06:26:10;41.60;50.60
9971;DHT22;5026;51.494;11.974;2022-07-22T06:28:38;42.10;49.30
9971;DHT22;5026;51.494;11.974;2022-07-22T06:31:05;42.90;47.80
9971;DHT22;5026;51.494;11.974;2022-07-22T06:33:33;42.40;47.50
9971;DHT22;5026;51.494;11.974;2022-07-22T06:36:00;41.70;47.50
9971;DHT22;5026;51.494;11.974;2022-07-22T06:38:27;42.30;47.40
9971;DHT22;5026;51.494;11.974;2022-07-22T06:40:54;43.10;46.20
9971;DHT22;5026;51.494;11.974;2022-07-22T06:43:21;43.30;46.40
9971;DHT22;5026;51.494;11.974;2022-07-22T06:45:49;44.20;45.00
9971;DHT22;5026;51.494;11.974;2022-07-22T06:48:16;44.60;44.70
9971;DHT22;5026;51.494;11.974;2022-07-22T06:50:44;45.60;43.80
9971;DHT22;5026;51.494;11.974;2022-07-22T06:53:11;46.10;43.00
9971;DHT22;5026;51.494;11.974;2022-07-22T06:55:37;46.30;42.50
9971;DHT22;5026;51.494;11.974;2022-07-22T06:58:04;46.60;41.50
9971;DHT22;5026;51.494;11.974;2022-07-22T07:00:31;46.40;41.50
9971;DHT22;5026;51.494;11.974;2022-07-22T07:03:01;47.30;40.90
9971;DHT22;5026;51.494;11.974;2022-07-22T07:05:28;47.50;40.40
9971;DHT22;5026;51.494;11.974;2022-07-22T07:07:55;47.00;40.40
9971;DHT22;5026;51.494;11.974;2022-07-22T07:10:22;47.50;40.00
9971;DHT22;5026;51.494;11.974;2022-07-22T07:12:49;46.30;40.50
9971;DHT22;5026;51.494;11.974;2022-07-22T07:15:16;46.10;40.00
9971;DHT22;5026;51.494;11.974;2022-07-22T07:17:43;44.30;41.40
9971;DHT22;5026;51.494;11.974;2022-07-22T07:20:12;44.90;41.30
9971;DHT22;5026;51.494;11.974;2022-07-22T07:22:39;42.70;41.40
9971;DHT22;5026;51.494;11.974;2022-07-22T07:25:07;39.70;43.60
9971;DHT22;5026;51.494;11.974;2022-07-22T07:27:34;37.20;46.10
9971;DHT22;5026;51.494;11.974;2022-07-22T07:30:04;39.00;46.90
9971;DHT22;5026;51.494;11.974;2022-07-22T07:32:31;41.70;45.10
9971;DHT22;5026;51.494;11.974;2022-07-22T07:34:58;42.50;43.00
9971;DHT22;5026;51.494;11.974;2022-07-22T07:37:26;39.70;43.60
9971;DHT22;5026;51.494;11.974;2022-07-22T07:39:53;37.60;45.90
9971;DHT22;5026;51.494;11.974;2022-07-22T07:42:20;35.70;48.10
9971;DHT22;5026;51.494;11.974;2022-07-22T07:44:47;34.60;50.20
9971;DHT22;5026;51.494;11.974;2022-07-22T07:47:14;37.80;49.20
9971;DHT22;5026;51.494;11.974;2022-07-22T07:49:43;39.80;46.40
9971;DHT22;5026;51.494;11.974;2022-07-22T07:52:10;39.10;45.50
9971;DHT22;5026;51.494;11.974;2022-07-22T07:54:39;40.40;46.60
9971;DHT22;5026;51.494;11.974;2022-07-22T07:57:06;40.20;45.00
9971;DHT22;5026;51.494;11.974;2022-07-22T07:59:34;38.70;45.60
9971;DHT22;5026;51.494;11.974;2022-07-22T08:02:01;37.00;46.50
9971;DHT22;5026;51.494;11.974;2022-07-22T08:04:28;36.40;48.00
9971;DHT22;5026;51.494;11.974;2022-07-22T08:06:55;35.80;48.40
9971;DHT22;5026;51.494;11.974;2022-07-22T08:09:23;35.10;49.20
9971;DHT22;5026;51.494;11.974;2022-07-22T08:11:52;34.20;50.00
9971;DHT22;5026;51.494;11.974;2022-07-22T08:14:18;33.20;50.90
9971;DHT22;5026;51.494;11.974;2022-07-22T08:16:45;33.40;51.70
9971;DHT22;5026;51.494;11.974;2022-07-22T08:19:12;33.80;50.70
9971;DHT22;5026;51.494;11.974;2022-07-22T08:21:39;36.50;50.70
9971;DHT22;5026;51.494;11.974;2022-07-22T08:24:08;39.40;47.60
9971;DHT22;5026;51.494;11.974;2022-07-22T08:26:35;41.50;45.80
9971;DHT22;5026;51.494;11.974;2022-07-22T08:29:04;41.30;44.30
9971;DHT22;5026;51.494;11.974;2022-07-22T08:31:33;41.60;44.20
9971;DHT22;5026;51.494;11.974;2022-07-22T08:34:00;40.10;44.00
9971;DHT22;5026;51.494;11.974;2022-07-22T08:36:28;38.80;45.40
9971;DHT22;5026;51.494;11.974;2022-07-22T08:38:55;37.00;46.80
9971;DHT22;5026;51.494;11.974;2022-07-22T08:41:23;35.50;48.20
9971;DHT22;5026;51.494;11.974;2022-07-22T08:43:51;34.00;49.50
9971;DHT22;5026;51.494;11.974;2022-07-22T08:46:19;32.90;50.80
9971;DHT22;5026;51.494;11.974;2022-07-22T08:48:46;34.30;51.50
9971;DHT22;5026;51.494;11.974;2022-07-22T08:51:13;36.60;49.90
9971;DHT22;5026;51.494;11.974;2022-07-22T08:53:41;38.80;48.10
9971;DHT22;5026;51.494;11.974;2022-07-22T08:56:08;40.10;45.60
9971;DHT22;5026;51.494;11.974;2022-07-22T08:58:38;38.80;45.40
9971;DHT22;5026;51.494;11.974;2022-07-22T09:01:07;36.90;46.90
9971;DHT22;5026;51.494;11.974;2022-07-22T09:03:45;35.20;49.30
9971;DHT22;5026;51.494;11.974;2022-07-22T09:06:13;33.30;52.30
9971;DHT22;5026;51.494;11.974;2022-07-22T09:08:51;32.00;54.50
9971;DHT22;5026;51.494;11.974;2022-07-22T09:11:19;31.30;56.30
9971;DHT22;5026;51.494;11.974;2022-07-22T09:13:47;31.40;57.50
9971;DHT22;5026;51.494;11.974;2022-07-22T09:16:15;31.90;58.00
9971;DHT22;5026;51.494;11.974;2022-07-22T09:18:47;33.20;56.80
9971;DHT22;5026;51.494;11.974;2022-07-22T09:21:15;33.60;55.70
9971;DHT22;5026;51.494;11.974;2022-07-22T09:23:42;32.10;56.80
9971;DHT22;5026;51.494;11.974;2022-07-22T09:26:29;31.40;58.40
9971;DHT22;5026;51.494;11.974;2022-07-22T09:28:57;31.40;58.50
9971;DHT22;5026;51.494;11.974;2022-07-22T09:31:25;30.70;58.70
9971;DHT22;5026;51.494;11.974;2022-07-22T09:33:54;30.30;60.00
9971;DHT22;5026;51.494;11.974;2022-07-22T09:36:21;30.00;60.60
9971;DHT22;5026;51.494;11.974;2022-07-22T09:38:48;30.00;60.90
9971;DHT22;5026;51.494;11.974;2022-07-22T09:41:15;29.80;61.50
9971;DHT22;5026;51.494;11.974;2022-07-22T09:43:42;29.70;61.70
9971;DHT22;5026;51.494;11.974;2022-07-22T09:46:10;29.70;61.90
9971;DHT22;5026;51.494;11.974;2022-07-22T09:48:37;29.80;62.10
9971;DHT22;5026;51.494;11.974;2022-07-22T09:51:07;30.20;61.50
9971;DHT22;5026;51.494;11.974;2022-07-22T09:53:34;30.60;60.80
9971;DHT22;5026;51.494;11.974;2022-07-22T09:56:04;30.70;60.60
9971;DHT22;5026;51.494;11.974;2022-07-22T09:58:31;30.60;60.90
9971;DHT22;5026;51.494;11.974;2022-07-22T10:01:00;31.10;60.70
9971;DHT22;5026;51.494;11.974;2022-07-22T10:03:30;31.60;60.10
9971;DHT22;5026;51.494;11.974;2022-07-22T10:05:58;31.60;60.00
9971;DHT22;5026;51.494;11.974;2022-07-22T10:08:29;32.10;59.00
9971;DHT22;5026;51.494;11.974;2022-07-22T10:11:00;32.30;58.40
9971;DHT22;5026;51.494;11.974;2022-07-22T10:13:29;32.30;58.30
9971;DHT22;5026;51.494;11.974;2022-07-22T10:15:57;32.20;58.50
9971;DHT22;5026;51.494;11.974;2022-07-22T10:18:24;31.30;59.20
9971;DHT22;5026;51.494;11.974;2022-07-22T10:21:05;30.90;60.10
9971;DHT22;5026;51.494;11.974;2022-07-22T10:23:33;31.00;60.10
9971;DHT22;5026;51.494;11.974;2022-07-22T10:26:02;30.90;59.90
9971;DHT22;5026;51.494;11.974;2022-07-22T10:28:31;30.70;59.40
9971;DHT22;5026;51.494;11.974;2022-07-22T10:31:18;30.30;60.40
9971;DHT22;5026;51.494;11.974;2022-07-22T10:33:49;30.20;60.50
9971;DHT22;5026;51.494;11.974;2022-07-22T10:36:30;30.00;60.30
9971;DHT22;5026;51.494;11.974;2022-07-22T10:39:05;30.30;60.60
9971;DHT22;5026;51.494;11.974;2022-07-22T10:41:34;30.20;60.60
9971;DHT22;5026;51.494;11.974;2022-07-22T10:44:03;30.30;60.70
9971;DHT22;5026;51.494;11.974;2022-07-22T10:46:49;30.40;60.70
9971;DHT22;5026;51.494;11.974;2022-07-22T10:49:18;29.70;61.60
9971;DHT22;5026;51.494;11.974;2022-07-22T10:52:10;29.60;62.00
9971;DHT22;5026;51.494;11.974;2022-07-22T10:55:31;29.60;62.10
9971;DHT22;5026;51.494;11.974;2022-07-22T10:57:59;29.80;61.70
9971;DHT22;5026;51.494;11.974;2022-07-22T11:00:26;29.40;61.70
9971;DHT22;5026;51.494;11.974;2022-07-22T11:02:56;29.80;61.50
9971;DHT22;5026;51.494;11.974;2022-07-22T11:05:27;30.10;60.90
9971;DHT22;5026;51.494;11.974;2022-07-22T11:07:55;30.30;61.10
9971;DHT22;5026;51.494;11.974;2022-07-22T11:10:24;30.70;60.50
9971;DHT22;5026;51.494;11.974;2022-07-22T11:12:51;30.20;60.20
9971;DHT22;5026;51.494;11.974;2022-07-22T11:15:18;30.00;60.70
9971;DHT22;5026;51.494;11.974;2022-07-22T11:17:55;30.00;61.00
9971;DHT22;5026;51.494;11.974;2022-07-22T11:20:23;30.30;60.60
9971;DHT22;5026;51.494;11.974;2022-07-22T11:22:50;30.20;60.80
9971;DHT22;5026;51.494;11.974;2022-07-22T11:25:17;30.50;60.00
9971;DHT22;5026;51.494;11.974;2022-07-22T11:27:50;30.00;60.10
9971;DHT22;5026;51.494;11.974;2022-07-22T11:30:18;29.50;61.10
9971;DHT22;5026;51.494;11.974;2022-07-22T11:32:45;29.60;61.60
9971;DHT22;5026;51.494;11.974;2022-07-22T11:35:13;29.20;62.20
9971;DHT22;5026;51.494;11.974;2022-07-22T11:37:40;29.50;62.00
9971;DHT22;5026;51.494;11.974;2022-07-22T11:40:09;28.90;62.30
9971;DHT22;5026;51.494;11.974;2022-07-22T11:42:36;28.50;62.90
9971;DHT22;5026;51.494;11.974;2022-07-22T11:45:05;28.20;63.00
9971;DHT22;5026;51.494;11.974;2022-07-22T11:47:32;28.30;63.60
9971;DHT22;5026;51.494;11.974;2022-07-22T11:49:59;28.80;62.80
9971;DHT22;5026;51.494;11.974;2022-07-22T11:52:26;28.90;62.80
9971;DHT22;5026;51.494;11.974;2022-07-22T11:54:53;29.40;62.30
9971;DHT22;5026;51.494;11.974;2022-07-22T11:57:20;29.80;61.40
9971;DHT22;5026;51.494;11.974;2022-07-22T11:59:47;29.70;61.60
9971;DHT22;5026;51.494;11.974;2022-07-22T12:02:16;28.90;62.10
9971;DHT22;5026;51.494;11.974;2022-07-22T12:04:46;28.50;62.80
9971;DHT22;5026;51.494;11.974;2022-07-22T12:07:14;28.50;62.70
9971;DHT22;5026;51.494;11.974;2022-07-22T12:09:42;28.50;62.70
9971;DHT22;5026;51.494;11.974;2022-07-22T12:12:10;28.50;63.00
9971;DHT22;5026;51.494;11.974;2022-07-22T12:14:44;28.20;63.40
9971;DHT22;5026;51.494;11.974;2022-07-22T12:17:12;27.80;63.70
9971;DHT22;5026;51.494;11.974;2022-07-22T12:19:41;27.30;64.70
9971;DHT22;5026;51.494;11.974;2022-07-22T12:22:10;27.70;64.60
9971;DHT22;5026;51.494;11.974;2022-07-22T12:24:41;28.30;64.00
9971;DHT22;5026;51.494;11.974;2022-07-22T12:27:10;28.70;63.50
9971;DHT22;5026;51.494;11.974;2022-07-22T12:29:42;29.10;62.70
9971;DHT22;5026;51.494;11.974;2022-07-22T12:32:13;29.20;62.40
9971;DHT22;5026;51.494;11.974;2022-07-22T12:34:44;29.40;62.00
9971;DHT22;5026;51.494;11.974;2022-07-22T12:37:14;29.60;61.90
9971;DHT22;5026;51.494;11.974;2022-07-22T12:39:56;29.60;61.70
9971;DHT22;5026;51.494;11.974;2022-07-22T12:42:24;29.50;61.90
9971;DHT22;5026;51.494;11.974;2022-07-22T12:44:53;29.50;61.80
9971;DHT22;5026;51.494;11.974;2022-07-22T12:47:46;29.30;61.90
9971;DHT22;5026;51.494;11.974;2022-07-22T12:50:26;28.90;62.40
9971;DHT22;5026;51.494;11.974;2022-07-22T12:52:55;28.70;62.40
9971;DHT22;5026;51.494;11.974;2022-07-22T12:55:22;28.40;62.60
9971;DHT22;5026;51.494;11.974;2022-07-22T12:57:49;28.30;62.90
9971;DHT22;5026;51.494;11.974;2022-07-22T13:00:18;28.20;63.00
9971;DHT22;5026;51.494;11.974;2022-07-22T13:02:45;28.40;63.00
9971;DHT22;5026;51.494;11.974;2022-07-22T13:05:12;28.40;63.00
9971;DHT22;5026;51.494;11.974;2022-07-22T13:07:41;28.10;63.30
9971;DHT22;5026;51.494;11.974;2022-07-22T13:10:09;28.00;63.60
9971;DHT22;5026;51.494;11.974;2022-07-22T13:12:36;27.90;63.60
9971;DHT22;5026;51.494;11.974;2022-07-22T13:15:04;28.10;63.50
9971;DHT22;5026;51.494;11.974;2022-07-22T13:17:31;27.90;63.30
9971;DHT22;5026;51.494;11.974;2022-07-22T13:19:59;28.10;63.50
9971;DHT22;5026;51.494;11.974;2022-07-22T13:22:25;28.10;63.40
9971;DHT22;5026;51.494;11.974;2022-07-22T13:24:54;27.80;63.20
9971;DHT22;5026;51.494;11.974;2022-07-22T13:27:21;27.10;64.30
9971;DHT22;5026;51.494;11.974;2022-07-22T13:29:48;26.10;65.20
9971;DHT22;5026;51.494;11.974;2022-07-22T13:32:15;26.00;66.00
9971;DHT22;5026;51.494;11.974;2022-07-22T13:34:43;26.00;66.30
9971;DHT22;5026;51.494;11.974;2022-07-22T13:37:10;26.30;66.30
9971;DHT22;5026;51.494;11.974;2022-07-22T13:39:42;26.70;65.80
9971;DHT22;5026;51.494;11.974;2022-07-22T13:42:12;26.80;65.30
9971;DHT22;5026;51.494;11.974;2022-07-22T13:44:42;27.00;65.50
9971;DHT22;5026;51.494;11.974;2022-07-22T13:47:10;27.30;65.40
9971;DHT22;5026;51.494;11.974;2022-07-22T13:49:37;27.60;64.20
9971;DHT22;5026;51.494;11.974;2022-07-22T13:52:04;27.00;65.10
9971;DHT22;5026;51.494;11.974;2022-07-22T13:54:31;27.50;65.00
9971;DHT22;5026;51.494;11.974;2022-07-22T13:56:59;27.80;64.60
9971;DHT22;5026;51.494;11.974;2022-07-22T13:59:27;27.90;64.20
9971;DHT22;5026;51.494;11.974;2022-07-22T14:01:55;27.60;63.80
9971;DHT22;5026;51.494;11.974;2022-07-22T14:04:22;28.00;63.40
9971;DHT22;5026;51.494;11.974;2022-07-22T14:06:49;27.70;63.70
9971;DHT22;5026;51.494;11.974;2022-07-22T14:09:16;27.70;64.00
9971;DHT22;5026;51.494;11.974;2022-07-22T14:11:43;27.60;64.10
9971;DHT22;5026;51.494;11.974;2022-07-22T14:14:10;27.60;63.80
9971;DHT22;5026;51.494;11.974;2022-07-22T14:16:40;27.40;64.30
9971;DHT22;5026;51.494;11.974;2022-07-22T14:19:09;27.50;64.60
9971;DHT22;5026;51.494;11.974;2022-07-22T14:21:38;27.40;64.50
9971;DHT22;5026;51.494;11.974;2022-07-22T14:24:06;27.30;65.00
9971;DHT22;5026;51.494;11.974;2022-07-22T14:26:33;27.70;65.00
9971;DHT22;5026;51.494;11.974;2022-07-22T14:29:00;28.00;64.40
9971;DHT22;5026;51.494;11.974;2022-07-22T14:31:28;28.00;63.60
9971;DHT22;5026;51.494;11.974;2022-07-22T14:33:56;27.60;64.20
9971;DHT22;5026;51.494;11.974;2022-07-22T14:36:23;27.40;64.20
9971;DHT22;5026;51.494;11.974;2022-07-22T14:38:51;27.20;64.70
9971;DHT22;5026;51.494;11.974;2022-07-22T14:41:19;27.30;64.90
9971;DHT22;5026;51.494;11.974;2022-07-22T14:43:46;27.20;65.00
9971;DHT22;5026;51.494;11.974;2022-07-22T14:46:13;27.30;64.90
9971;DHT22;5026;51.494;11.974;2022-07-22T14:48:43;27.40;64.70
9971;DHT22;5026;51.494;11.974;2022-07-22T14:51:12;27.20;64.70
9971;DHT22;5026;51.494;11.974;2022-07-22T14:53:39;27.50;64.70
9971;DHT22;5026;51.494;11.974;2022-07-22T14:56:06;27.60;64.30
9971;DHT22;5026;51.494;11.974;2022-07-22T14:58:33;27.10;64.90
9971;DHT22;5026;51.494;11.974;2022-07-22T15:01:00;26.90;65.00
9971;DHT22;5026;51.494;11.974;2022-07-22T15:03:27;26.80;65.20
9971;DHT22;5026;51.494;11.974;2022-07-22T15:05:54;26.80;65.30
9971;DHT22;5026;51.494;11.974;2022-07-22T15:08:22;26.90;65.20
9971;DHT22;5026;51.494;11.974;2022-07-22T15:10:49;26.80;65.40
9971;DHT22;5026;51.494;11.974;2022-07-22T15:13:16;26.90;65.50
9971;DHT22;5026;51.494;11.974;2022-07-22T15:15:43;26.50;65.70
9971;DHT22;5026;51.494;11.974;2022-07-22T15:18:11;26.30;66.50
9971;DHT22;5026;51.494;11.974;2022-07-22T15:20:38;26.60;65.90
9971;DHT22;5026;51.494;11.974;2022-07-22T15:23:05;26.80;65.80
9971;DHT22;5026;51.494;11.974;2022-07-22T15:25:33;26.70;65.90
9971;DHT22;5026;51.494;11.974;2022-07-22T15:28:00;26.80;66.10
9971;DHT22;5026;51.494;11.974;2022-07-22T15:30:27;26.90;65.50
9971;DHT22;5026;51.494;11.974;2022-07-22T15:32:54;26.90;65.40
9971;DHT22;5026;51.494;11.974;2022-07-22T15:35:21;26.70;65.50
9971;DHT22;5026;51.494;11.974;2022-07-22T15:37:48;26.70;65.80
9971;DHT22;5026;51.494;11.974;2022-07-22T15:40:15;26.70;65.80
9971;DHT22;5026;51.494;11.974;2022-07-22T15:42:44;26.80;65.70
9971;DHT22;5026;51.494;11.974;2022-07-22T15:45:11;26.60;65.70
9971;DHT22;5026;51.494;11.974;2022-07-22T15:47:38;26.60;65.80
9971;DHT22;5026;51.494;11.974;2022-07-22T15:50:06;26.20;66.10
9971;DHT22;5026;51.494;11.974;2022-07-22T15:52:33;26.00;66.60